Time;durP1;ratioP1;P1;durP2;ratioP2;P2;SDS_P1;SDS_P2;PMS_P1;PMS_P2;Temp;Humidity;BMP_temperature;BMP_pressure;BME280_temperature;BME280_humidity;BME280_pressure;Samples;Min_cycle;Max_cycle;Signal;HPM_P1;HPM_P2
2020/12/12 00:02:14;;;;;;;13.60;10.23;;;4.80;99.90;;;;;;5095977;28;21212;-73
2020/12/12 00:04:39;;;;;;;14.40;10.57;;;4.90;99.90;;;;;;5095094;28;20424;-72
2020/12/12 00:07:05;;;;;;;14.77;10.00;;;4.90;99.90;;;;;;5096036;28;20511;-72
2020/12/12 00:09:31;;;;;;;12.63;9.60;;;4.90;99.90;;;;;;5096151;28;20207;-73
2020/12/12 00:11:56;;;;;;;11.67;9.17;;;4.90;99.90;;;;;;5099400;28;20284;-72
2020/12/12 00:14:22;;;;;;;14.40;10.07;;;4.90;99.90;;;;;;5097239;28;20256;-73
2020/12/12 00:16:54;;;;;;;14.70;10.57;;;4.90;99.90;;;;;;5098759;28;20206;-73
2020/12/12 00:19:20;;;;;;;12.37;9.67;;;4.90;99.90;;;;;;5100837;28;20207;-73
2020/12/12 00:21:53;;;;;;;11.87;9.77;;;4.90;99.90;;;;;;5099271;28;20509;-73
2020/12/12 00:24:18;;;;;;;11.03;9.33;;;4.80;99.90;;;;;;5097882;28;20200;-73
2020/12/12 00:26:44;;;;;;;9.80;8.80;;;4.90;99.90;;;;;;5097225;28;20420;-73
2020/12/12 00:29:12;;;;;;;10.40;8.90;;;4.90;99.90;;;;;;5096519;28;20502;-73
2020/12/12 00:31:39;;;;;;;10.00;8.50;;;4.90;99.90;;;;;;5097746;28;20815;-73
2020/12/12 00:34:05;;;;;;;12.23;9.90;;;4.90;99.90;;;;;;5096316;28;20422;-73
2020/12/12 00:36:31;;;;;;;11.97;9.73;;;4.90;99.90;;;;;;5096273;28;20510;-73
2020/12/12 00:38:56;;;;;;;14.67;10.07;;;5.00;99.90;;;;;;5097331;28;20474;-73
2020/12/12 00:41:22;;;;;;;10.60;8.83;;;4.90;99.90;;;;;;5097143;28;20257;-73
2020/12/12 00:43:47;;;;;;;11.80;10.13;;;5.00;99.90;;;;;;5096990;28;20542;-73
2020/12/12 00:46:13;;;;;;;9.40;8.47;;;5.00;99.90;;;;;;5096004;28;20207;-73
2020/12/12 00:48:38;;;;;;;10.90;9.10;;;4.90;99.90;;;;;;5094787;28;20189;-73
2020/12/12 00:51:05;;;;;;;12.10;9.87;;;4.90;99.90;;;;;;5096172;28;20213;-73
2020/12/12 00:53:30;;;;;;;11.87;9.10;;;4.90;99.90;;;;;;5094714;28;20851;-73
2020/12/12 00:55:56;;;;;;;10.40;8.87;;;5.00;99.90;;;;;;5094432;28;20170;-72
2020/12/12 00:58:22;;;;;;;13.70;8.70;;;5.00;99.90;;;;;;5097427;28;20631;-73
2020/12/12 01:00:48;;;;;;;10.67;7.53;;;5.00;99.90;;;;;;5096616;28;20185;-74
2020/12/12 01:03:13;;;;;;;13.10;9.33;;;5.00;99.90;;;;;;5086766;28;20180;-72
2020/12/12 01:05:39;;;;;;;9.67;8.67;;;5.10;99.90;;;;;;5090962;28;20837;-73
2020/12/12 01:08:05;;;;;;;13.40;9.27;;;5.10;99.90;;;;;;5106436;28;20173;-73
2020/12/12 01:10:30;;;;;;;10.97;8.40;;;5.10;99.90;;;;;;5099148;28;20197;-72
2020/12/12 01:12:56;;;;;;;10.57;8.27;;;5.10;99.90;;;;;;5097815;28;20166;-73
2020/12/12 01:15:22;;;;;;;10.50;8.53;;;5.10;99.90;;;;;;5096596;28;20169;-72
2020/12/12 01:17:49;;;;;;;13.00;8.70;;;5.20;99.90;;;;;;5096443;28;20443;-75
2020/12/12 01:20:14;;;;;;;10.43;9.03;;;5.20;99.90;;;;;;5096896;28;20884;-72
2020/12/12 01:22:40;;;;;;;11.90;7.83;;;5.20;99.90;;;;;;5096416;28;20431;-74
2020/12/12 01:25:06;;;;;;;9.70;8.37;;;5.20;99.90;;;;;;5093673;28;20207;-73
2020/12/12 01:27:32;;;;;;;9.90;8.40;;;5.20;99.90;;;;;;5095291;28;20595;-73
2020/12/12 01:29:57;;;;;;;10.80;8.60;;;5.30;99.90;;;;;;5096678;28;20443;-73
2020/12/12 01:32:23;;;;;;;10.90;9.17;;;5.30;99.90;;;;;;5092217;28;20170;-73
2020/12/12 01:34:49;;;;;;;10.17;8.00;;;5.30;99.90;;;;;;5096223;28;20177;-72
2020/12/12 01:37:14;;;;;;;10.30;7.77;;;5.20;99.90;;;;;;5096296;28;20173;-72
2020/12/12 01:39:40;;;;;;;10.37;8.13;;;5.20;99.90;;;;;;5092602;28;20212;-72
2020/12/12 01:42:06;;;;;;;8.97;7.37;;;5.30;99.90;;;;;;5095744;28;20181;-73
2020/12/12 01:44:31;;;;;;;10.63;8.30;;;5.30;99.90;;;;;;5096545;28;20590;-73
2020/12/12 01:46:59;;;;;;;10.90;7.87;;;5.30;99.90;;;;;;5095850;28;20173;-73
2020/12/12 01:49:25;;;;;;;9.27;7.83;;;5.30;99.90;;;;;;5094979;28;20208;-72
2020/12/12 01:51:51;;;;;;;10.80;8.10;;;5.30;99.90;;;;;;5077872;28;20424;-73
2020/12/12 01:54:18;;;;;;;9.23;8.30;;;5.30;99.90;;;;;;5094314;28;20424;-72
2020/12/12 01:56:46;;;;;;;14.07;8.27;;;5.30;99.90;;;;;;5092177;28;20908;-73
2020/12/12 01:59:12;;;;;;;9.90;8.47;;;5.40;99.90;;;;;;5095357;28;20482;-72
2020/12/12 02:01:38;;;;;;;12.57;8.17;;;5.30;99.90;;;;;;5093029;28;20794;-73
2020/12/12 02:04:07;;;;;;;10.33;8.30;;;5.40;99.90;;;;;;5093558;28;20186;-73
2020/12/12 02:06:35;;;;;;;9.63;7.93;;;5.40;99.90;;;;;;5089447;28;20449;-73
2020/12/12 02:09:01;;;;;;;11.13;8.10;;;5.40;99.90;;;;;;5093439;28;20422;-73
2020/12/12 02:11:27;;;;;;;14.00;8.47;;;5.40;99.90;;;;;;5091568;28;20520;-73
2020/12/12 02:13:56;;;;;;;10.03;8.73;;;5.40;99.90;;;;;;5093532;28;20519;-73
2020/12/12 02:16:22;;;;;;;11.57;9.93;;;5.30;99.90;;;;;;5092178;28;20185;-72
2020/12/12 02:18:48;;;;;;;10.90;7.70;;;5.40;99.90;;;;;;5087957;28;20494;-73
2020/12/12 02:21:13;;;;;;;11.20;9.43;;;5.30;99.90;;;;;;5087249;28;20455;-73
2020/12/12 02:23:39;;;;;;;13.60;7.90;;;5.30;99.90;;;;;;5087877;28;20182;-73
2020/12/12 02:26:06;;;;;;;12.77;8.77;;;5.40;99.90;;;;;;5090743;28;20205;-73
2020/12/12 02:28:40;;;;;;;10.80;8.67;;;5.40;99.90;;;;;;5094510;28;20435;-73
2020/12/12 02:31:06;;;;;;;10.23;8.03;;;5.40;99.90;;;;;;5092884;28;20501;-73
2020/12/12 02:33:31;;;;;;;12.23;8.27;;;5.40;99.90;;;;;;5092834;28;20439;-74
2020/12/12 02:35:57;;;;;;;12.30;8.57;;;5.40;99.90;;;;;;5093393;28;20188;-73
2020/12/12 02:38:23;;;;;;;13.63;11.00;;;5.40;99.90;;;;;;5095086;28;20197;-73
2020/12/12 02:40:49;;;;;;;13.70;9.63;;;5.50;99.90;;;;;;5094026;28;20193;-73
2020/12/12 02:43:15;;;;;;;14.03;9.43;;;5.50;99.90;;;;;;5093548;28;20420;-73
2020/12/12 02:45:45;;;;;;;10.30;8.40;;;5.50;99.90;;;;;;5090228;28;20432;-73
2020/12/12 02:48:10;;;;;;;10.60;9.10;;;5.50;99.90;;;;;;5093676;28;20193;-73
2020/12/12 02:50:36;;;;;;;9.77;8.77;;;5.50;99.90;;;;;;5092596;28;20484;-73
2020/12/12 02:53:02;;;;;;;9.97;7.63;;;5.50;99.90;;;;;;5092186;28;20195;-73
2020/12/12 02:55:27;;;;;;;12.40;8.17;;;5.50;99.90;;;;;;5092959;28;20578;-73
2020/12/12 02:57:53;;;;;;;9.25;8.15;;;5.50;99.90;;;;;;5093530;28;20435;-73
2020/12/12 03:00:22;;;;;;;10.90;8.47;;;5.50;99.90;;;;;;5091142;28;20198;-72
2020/12/12 03:02:48;;;;;;;10.80;8.80;;;5.60;99.90;;;;;;5093800;28;20177;-73
2020/12/12 03:05:13;;;;;;;14.43;9.57;;;5.60;99.90;;;;;;5092947;28;20439;-73
2020/12/12 03:07:39;;;;;;;10.93;8.30;;;5.60;99.90;;;;;;5092512;28;20180;-73
2020/12/12 03:10:06;;;;;;;11.30;8.23;;;5.60;99.90;;;;;;5084752;28;20625;-73
2020/12/12 03:12:36;;;;;;;10.67;8.90;;;5.60;99.90;;;;;;5088507;28;20184;-72
2020/12/12 03:15:13;;;;;;;9.73;8.47;;;5.60;99.90;;;;;;5092978;28;20794;-73
2020/12/12 03:17:38;;;;;;;13.47;10.50;;;5.60;99.90;;;;;;5093341;28;20443;-73
2020/12/12 03:20:06;;;;;;;12.97;8.00;;;5.60;99.90;;;;;;5093756;28;20467;-73
2020/12/12 03:22:32;;;;;;;11.33;9.17;;;5.60;99.90;;;;;;5093286;28;20222;-72
2020/12/12 03:24:57;;;;;;;13.23;9.70;;;5.60;99.90;;;;;;5092360;28;20435;-73
2020/12/12 03:27:23;;;;;;;9.43;8.43;;;5.60;99.90;;;;;;5092739;28;20461;-73
2020/12/12 03:29:49;;;;;;;10.60;8.57;;;5.60;99.90;;;;;;5093696;28;20251;-73
2020/12/12 03:32:14;;;;;;;13.13;8.40;;;5.70;99.90;;;;;;5093332;28;20205;-73
2020/12/12 03:34:44;;;;;;;13.60;8.60;;;5.70;99.90;;;;;;5095536;28;20189;-73
2020/12/12 03:37:10;;;;;;;11.57;8.83;;;5.70;99.90;;;;;;5097341;28;20223;-73
2020/12/12 03:39:36;;;;;;;10.20;8.87;;;5.60;99.90;;;;;;5093472;28;20467;-73
2020/12/12 03:42:01;;;;;;;9.60;8.57;;;5.60;99.90;;;;;;5097460;28;20469;-73
2020/12/12 03:44:27;;;;;;;10.50;8.70;;;5.60;99.90;;;;;;5098221;28;20173;-73
2020/12/12 03:46:52;;;;;;;13.70;10.90;;;5.60;99.90;;;;;;5097525;28;20185;-73
2020/12/12 03:49:18;;;;;;;12.13;8.67;;;5.50;99.90;;;;;;5098102;28;20205;-73
2020/12/12 03:51:44;;;;;;;11.87;9.20;;;5.50;99.90;;;;;;5096056;28;20173;-73
2020/12/12 03:54:09;;;;;;;11.13;8.87;;;5.50;99.90;;;;;;5095442;28;20186;-72
2020/12/12 03:56:35;;;;;;;13.03;8.83;;;5.60;99.90;;;;;;5096351;28;20197;-73
2020/12/12 03:59:01;;;;;;;12.03;9.77;;;5.60;99.90;;;;;;5095970;28;20231;-73
2020/12/12 04:01:26;;;;;;;14.03;10.87;;;5.60;99.90;;;;;;5096816;28;20178;-73
2020/12/12 04:03:52;;;;;;;13.37;10.60;;;5.60;99.90;;;;;;5097328;28;20170;-73
2020/12/12 04:06:17;;;;;;;14.23;11.60;;;5.60;99.90;;;;;;5096103;28;20219;-73
2020/12/12 04:08:43;;;;;;;13.17;9.93;;;5.60;99.90;;;;;;5096360;28;20189;-73
2020/12/12 04:11:09;;;;;;;13.73;10.50;;;5.50;99.90;;;;;;5095814;28;20193;-73
2020/12/12 04:13:34;;;;;;;15.70;11.17;;;5.50;99.90;;;;;;5096618;28;20174;-73
2020/12/12 04:16:00;;;;;;;17.30;12.17;;;5.50;99.90;;;;;;5096549;28;20184;-73
2020/12/12 04:18:26;;;;;;;14.23;11.27;;;5.50;99.90;;;;;;5098071;28;20539;-73
2020/12/12 04:20:51;;;;;;;16.23;13.10;;;5.50;99.90;;;;;;5095222;28;20702;-73
2020/12/12 04:23:17;;;;;;;13.73;12.10;;;5.50;99.90;;;;;;5096239;28;20576;-73
2020/12/12 04:25:42;;;;;;;15.30;11.07;;;5.60;99.90;;;;;;5095260;28;20196;-73
2020/12/12 04:28:08;;;;;;;14.33;11.40;;;5.50;99.90;;;;;;5096355;28;20180;-72
2020/12/12 04:30:34;;;;;;;15.83;12.90;;;5.50;99.90;;;;;;5097184;28;20293;-74
2020/12/12 04:32:59;;;;;;;15.57;12.20;;;5.60;99.90;;;;;;5095343;28;20181;-73
2020/12/12 04:35:25;;;;;;;16.50;12.70;;;5.60;99.90;;;;;;5095909;28;20181;-73
2020/12/12 04:37:50;;;;;;;19.80;13.50;;;5.60;99.90;;;;;;5095943;28;20184;-73
2020/12/12 04:40:16;;;;;;;17.37;12.90;;;5.70;99.90;;;;;;5097100;28;20235;-72
2020/12/12 04:42:42;;;;;;;17.93;13.60;;;5.70;99.90;;;;;;5097182;28;20178;-74
2020/12/12 04:45:12;;;;;;;17.67;13.07;;;5.70;99.90;;;;;;5095551;28;20193;-73
2020/12/12 04:47:43;;;;;;;19.57;13.10;;;5.80;99.90;;;;;;5095903;28;20424;-73
2020/12/12 04:50:10;;;;;;;18.20;12.80;;;5.80;99.90;;;;;;5096366;28;20827;-73
2020/12/12 04:52:40;;;;;;;16.83;11.60;;;5.80;99.90;;;;;;5096473;28;20427;-74
2020/12/12 04:55:06;;;;;;;15.67;11.47;;;5.80;99.90;;;;;;5096099;28;20527;-73
2020/12/12 04:57:36;;;;;;;18.30;13.20;;;5.80;99.90;;;;;;5089889;28;20491;-73
2020/12/12 05:00:13;;;;;;;19.07;13.30;;;5.80;99.90;;;;;;5095332;28;20201;-73
2020/12/12 05:02:39;;;;;;;17.10;13.00;;;5.90;99.90;;;;;;5095416;28;20434;-72
2020/12/12 05:05:06;;;;;;;17.03;13.70;;;5.90;99.90;;;;;;5088340;28;20931;-73
2020/12/12 05:07:31;;;;;;;16.47;13.70;;;5.90;99.90;;;;;;5095714;28;20809;-73
2020/12/12 05:09:57;;;;;;;18.50;12.50;;;5.90;99.90;;;;;;5095684;28;20443;-73
2020/12/12 05:12:24;;;;;;;18.73;14.50;;;5.90;99.90;;;;;;5095944;28;20235;-73
2020/12/12 05:14:50;;;;;;;17.27;13.00;;;5.90;99.90;;;;;;5094560;28;20205;-73
2020/12/12 05:17:16;;;;;;;15.10;12.67;;;5.90;99.90;;;;;;5093004;28;20451;-72
2020/12/12 05:19:46;;;;;;;23.03;14.87;;;5.90;99.90;;;;;;5092883;28;20798;-73
2020/12/12 05:22:12;;;;;;;23.33;15.00;;;5.90;99.90;;;;;;5095809;28;20434;-73
2020/12/12 05:24:38;;;;;;;24.10;14.37;;;5.80;99.90;;;;;;5093696;28;20472;-73
2020/12/12 05:27:05;;;;;;;20.83;14.77;;;5.80;99.90;;;;;;5095584;28;20434;-73
2020/12/12 05:29:30;;;;;;;21.33;14.70;;;5.80;99.90;;;;;;5096240;28;20877;-73
2020/12/12 05:31:57;;;;;;;19.80;14.53;;;5.80;99.90;;;;;;5095229;28;20467;-73
2020/12/12 05:34:24;;;;;;;23.80;14.03;;;5.80;99.90;;;;;;5095940;28;20197;-73
2020/12/12 05:36:50;;;;;;;22.90;15.07;;;5.90;99.90;;;;;;5097257;28;20506;-73
2020/12/12 05:39:17;;;;;;;19.43;14.00;;;5.90;99.90;;;;;;5097104;28;20530;-73
2020/12/12 05:41:44;;;;;;;19.47;13.80;;;5.90;99.90;;;;;;5096917;28;20792;-73
2020/12/12 05:44:10;;;;;;;17.57;14.40;;;5.90;99.90;;;;;;5095928;28;20428;-74
2020/12/12 05:46:38;;;;;;;20.30;15.07;;;6.00;99.90;;;;;;5096465;28;20450;-73
2020/12/12 05:49:05;;;;;;;21.27;14.87;;;6.00;99.90;;;;;;5096893;28;20435;-74
2020/12/12 05:51:32;;;;;;;20.73;14.53;;;6.10;99.90;;;;;;5096144;28;20489;-74
2020/12/12 05:53:59;;;;;;;27.53;16.40;;;6.00;99.90;;;;;;5097790;28;20467;-73
2020/12/12 05:56:25;;;;;;;21.80;15.97;;;6.00;99.90;;;;;;5095515;28;20438;-73
2020/12/12 05:58:53;;;;;;;23.00;15.43;;;6.10;99.90;;;;;;5096936;28;20451;-74
2020/12/12 06:01:24;;;;;;;22.80;14.77;;;6.00;99.90;;;;;;5097048;28;20821;-73
2020/12/12 06:04:02;;;;;;;21.43;15.23;;;6.00;99.90;;;;;;5097163;28;20412;-74
2020/12/12 06:06:28;;;;;;;25.20;16.67;;;5.90;99.90;;;;;;5096967;28;20431;-72
2020/12/12 06:09:15;;;;;;;23.50;15.83;;;6.00;99.90;;;;;;5097759;28;20420;-74
2020/12/12 06:11:43;;;;;;;19.90;14.37;;;6.00;99.90;;;;;;5096820;28;20498;-73
2020/12/12 06:14:09;;;;;;;20.47;13.77;;;6.10;99.90;;;;;;5095920;28;20435;-74
2020/12/12 06:16:37;;;;;;;26.03;17.30;;;6.00;99.90;;;;;;5097559;28;20502;-73
2020/12/12 06:19:21;;;;;;;24.20;15.93;;;6.10;99.90;;;;;;5097463;28;20285;-72
2020/12/12 06:21:48;;;;;;;24.27;16.07;;;6.20;99.90;;;;;;5092805;28;20550;-72
2020/12/12 06:24:15;;;;;;;24.30;17.17;;;6.20;99.90;;;;;;5095114;28;20419;-74
2020/12/12 06:26:44;;;;;;;21.30;14.50;;;6.20;99.90;;;;;;5094719;28;20436;-73
2020/12/12 06:29:12;;;;;;;23.80;16.83;;;6.20;99.90;;;;;;5095184;28;20803;-73
2020/12/12 06:31:37;;;;;;;21.00;15.60;;;6.20;99.90;;;;;;5094038;28;20833;-73
2020/12/12 06:34:03;;;;;;;23.60;15.90;;;6.20;99.90;;;;;;5096248;28;20427;-73
2020/12/12 06:36:30;;;;;;;19.03;13.23;;;6.20;99.90;;;;;;5093440;28;20177;-73
2020/12/12 06:39:19;;;;;;;21.50;15.17;;;6.20;99.90;;;;;;5092057;28;20193;-73
2020/12/12 06:41:45;;;;;;;15.87;12.53;;;6.10;99.90;;;;;;5092806;28;20455;-74
2020/12/12 06:44:11;;;;;;;20.33;15.40;;;6.10;99.90;;;;;;5092816;28;20518;-73
2020/12/12 06:46:53;;;;;;;20.50;13.53;;;6.10;99.90;;;;;;5095416;28;20451;-73
2020/12/12 06:49:21;;;;;;;18.07;14.20;;;6.20;99.90;;;;;;5094104;28;20236;-73
2020/12/12 06:51:50;;;;;;;22.77;15.90;;;6.20;99.90;;;;;;5093992;28;20455;-73
2020/12/12 06:54:17;;;;;;;20.03;14.87;;;6.20;99.90;;;;;;5092922;28;20431;-73
2020/12/12 06:56:43;;;;;;;22.07;15.03;;;6.20;99.90;;;;;;5090129;28;20463;-72
2020/12/12 06:59:35;;;;;;;25.07;13.97;;;6.10;99.90;;;;;;5090954;28;20495;-72
2020/12/12 07:02:06;;;;;;;19.47;13.40;;;6.20;99.90;;;;;;5093510;28;20197;-74
2020/12/12 07:04:37;;;;;;;18.97;13.37;;;6.20;99.90;;;;;;5095442;28;20508;-73
2020/12/12 07:07:06;;;;;;;24.87;14.43;;;6.20;99.90;;;;;;5095720;28;20431;-73
2020/12/12 07:09:36;;;;;;;17.50;12.40;;;6.10;99.90;;;;;;5095543;28;20455;-72
2020/12/12 07:12:04;;;;;;;20.40;15.27;;;6.10;99.90;;;;;;5094904;28;20789;-73
2020/12/12 07:14:30;;;;;;;23.30;14.13;;;6.00;99.90;;;;;;5095204;28;20488;-73
2020/12/12 07:16:58;;;;;;;24.37;15.07;;;6.00;99.90;;;;;;5094591;28;20431;-73
2020/12/12 07:19:49;;;;;;;21.90;14.23;;;6.00;99.90;;;;;;5091919;28;20467;-72
2020/12/12 07:22:15;;;;;;;24.87;16.30;;;6.00;99.90;;;;;;5091424;28;20435;-73
2020/12/12 07:24:41;;;;;;;23.60;15.63;;;6.00;99.90;;;;;;5090131;28;20514;-72
2020/12/12 07:27:08;;;;;;;22.10;15.10;;;6.00;99.90;;;;;;5093487;28;20200;-73
2020/12/12 07:29:34;;;;;;;27.87;15.93;;;5.90;99.90;;;;;;5094295;28;20867;-73
2020/12/12 07:32:00;;;;;;;33.27;18.53;;;5.90;99.90;;;;;;5094644;28;20439;-73
2020/12/12 07:34:27;;;;;;;26.23;16.47;;;5.90;99.90;;;;;;5091422;28;20196;-73
2020/12/12 07:37:00;;;;;;;25.90;17.17;;;5.90;99.90;;;;;;5092857;28;20435;-74
2020/12/12 07:39:27;;;;;;;25.63;17.53;;;6.00;99.90;;;;;;5094520;28;20482;-74
2020/12/12 07:41:57;;;;;;;30.57;19.30;;;6.00;99.90;;;;;;5094982;28;20585;-74
2020/12/12 07:44:23;;;;;;;24.67;17.47;;;6.10;99.90;;;;;;5095266;28;20916;-74
2020/12/12 07:47:05;;;;;;;24.43;18.07;;;6.00;99.90;;;;;;5094462;28;20505;-73
2020/12/12 07:49:32;;;;;;;24.67;16.27;;;6.10;99.90;;;;;;5082608;28;20463;-74
2020/12/12 07:52:02;;;;;;;25.23;17.00;;;6.10;99.90;;;;;;5092895;28;20436;-74
2020/12/12 07:57:24;;;;;;;27.10;17.87;;;6.20;99.90;;;;;;5081440;28;20420;-74
2020/12/12 07:59:49;;;;;;;24.60;15.30;;;6.20;99.90;;;;;;5094464;28;20544;-74
2020/12/12 08:02:16;;;;;;;25.93;15.90;;;6.20;99.90;;;;;;5094493;28;20415;-74
2020/12/12 08:04:42;;;;;;;25.93;16.57;;;6.10;99.90;;;;;;5093183;28;20180;-74
2020/12/12 08:07:21;;;;;;;26.97;16.87;;;6.10;99.90;;;;;;5093448;28;20423;-74
2020/12/12 08:09:51;;;;;;;24.40;16.40;;;6.20;99.90;;;;;;5092989;28;20188;-74
2020/12/12 08:12:31;;;;;;;21.37;16.00;;;6.20;99.90;;;;;;5093216;28;20434;-73
2020/12/12 08:15:20;;;;;;;25.37;16.73;;;6.20;99.90;;;;;;5087065;28;20480;-73
2020/12/12 08:17:46;;;;;;;21.40;15.57;;;6.20;99.90;;;;;;5092415;28;20427;-73
2020/12/12 08:20:25;;;;;;;28.40;17.17;;;6.20;99.90;;;;;;5093008;28;20470;-72
2020/12/12 08:22:52;;;;;;;25.33;17.23;;;6.20;99.90;;;;;;5093163;28;20173;-73
2020/12/12 08:25:19;;;;;;;22.00;15.80;;;6.20;99.90;;;;;;5092109;28;20950;-73
2020/12/12 08:27:45;;;;;;;24.37;16.73;;;6.20;99.90;;;;;;5088687;28;20427;-73
2020/12/12 08:30:11;;;;;;;26.20;16.20;;;6.20;99.90;;;;;;5092489;28;20443;-73
2020/12/12 08:32:39;;;;;;;23.40;15.63;;;6.30;99.90;;;;;;5098429;28;20451;-74
2020/12/12 08:35:25;;;;;;;25.90;17.87;;;6.30;99.90;;;;;;5097555;28;20467;-73
2020/12/12 08:37:53;;;;;;;21.53;16.80;;;6.30;99.90;;;;;;5101112;28;20404;-73
2020/12/12 08:40:19;;;;;;;24.40;16.17;;;6.30;99.90;;;;;;5100335;28;20463;-73
2020/12/12 08:43:14;;;;;;;22.00;15.67;;;6.40;99.90;;;;;;5100823;28;20923;-73
2020/12/12 08:45:42;;;;;;;24.03;15.63;;;6.40;99.90;;;;;;5086505;28;20185;-73
2020/12/12 08:48:12;;;;;;;28.17;20.40;;;6.40;99.90;;;;;;5100430;28;20475;-74
2020/12/12 08:50:56;;;;;;;27.57;16.93;;;6.30;99.90;;;;;;5099668;28;20476;-73
2020/12/12 08:53:32;;;;;;;23.67;15.97;;;6.40;99.90;;;;;;5100592;28;20981;-73
2020/12/12 08:55:58;;;;;;;25.20;16.93;;;6.40;99.90;;;;;;5097017;28;20522;-72
2020/12/12 08:58:43;;;;;;;25.77;16.97;;;6.50;99.90;;;;;;5096171;28;20451;-73
2020/12/12 09:01:22;;;;;;;23.50;15.90;;;6.50;99.90;;;;;;5093169;28;20482;-73
2020/12/12 09:04:02;;;;;;;27.53;16.40;;;6.50;99.90;;;;;;5091153;28;20433;-72
2020/12/12 09:06:35;;;;;;;27.20;17.53;;;6.50;99.90;;;;;;5080865;28;20496;-73
2020/12/12 09:09:16;;;;;;;29.23;18.50;;;6.60;99.90;;;;;;5091737;28;20815;-73
2020/12/12 09:12:07;;;;;;;32.83;18.83;;;6.50;99.90;;;;;;5093407;28;20513;-74
2020/12/12 09:14:48;;;;;;;22.07;15.70;;;6.60;99.90;;;;;;5104771;28;20436;-73
2020/12/12 09:17:14;;;;;;;25.17;16.30;;;6.60;99.90;;;;;;5092821;28;20419;-72
2020/12/12 09:19:40;;;;;;;24.20;15.47;;;6.60;99.90;;;;;;5089571;28;20473;-73
2020/12/12 09:22:07;;;;;;;20.40;15.23;;;6.60;99.90;;;;;;5092448;28;20506;-72
2020/12/12 09:24:32;;;;;;;22.43;15.63;;;6.60;99.90;;;;;;5092644;28;20219;-72
2020/12/12 09:26:59;;;;;;;24.80;16.27;;;6.60;99.90;;;;;;5091833;28;20431;-73
2020/12/12 09:29:26;;;;;;;23.30;15.73;;;6.60;99.90;;;;;;5092522;28;20220;-73
2020/12/12 09:31:52;;;;;;;24.67;15.60;;;6.60;99.90;;;;;;5094861;28;20439;-73
2020/12/12 09:34:18;;;;;;;27.77;19.07;;;6.70;99.90;;;;;;5094096;28;20984;-72
2020/12/12 09:36:44;;;;;;;22.60;15.90;;;6.60;99.90;;;;;;5089685;28;20506;-74
2020/12/12 09:39:10;;;;;;;22.90;16.90;;;6.70;99.90;;;;;;5088788;28;20204;-71
2020/12/12 09:41:36;;;;;;;28.83;16.13;;;6.70;99.90;;;;;;5091562;28;20412;-72
2020/12/12 09:44:01;;;;;;;22.33;14.97;;;6.70;99.90;;;;;;5093447;28;20213;-71
2020/12/12 09:46:27;;;;;;;20.30;15.87;;;6.80;99.90;;;;;;5084057;28;20408;-73
2020/12/12 09:48:53;;;;;;;23.30;17.87;;;6.90;99.90;;;;;;5084933;28;20186;-72
2020/12/12 09:51:19;;;;;;;21.10;15.77;;;6.90;99.90;;;;;;5090225;28;20246;-72
2020/12/12 09:53:46;;;;;;;22.20;16.70;;;6.90;99.90;;;;;;5091311;28;20166;-72
2020/12/12 09:56:14;;;;;;;23.33;16.93;;;7.00;99.90;;;;;;5092432;28;20438;-72
2020/12/12 09:58:40;;;;;;;21.73;15.30;;;6.90;99.90;;;;;;5088102;28;20473;-72
2020/12/12 10:01:06;;;;;;;21.40;15.43;;;6.90;99.90;;;;;;5087736;28;20439;-72
2020/12/12 10:03:32;;;;;;;20.97;15.10;;;7.00;99.90;;;;;;5090674;28;20696;-72
2020/12/12 10:05:58;;;;;;;27.33;18.13;;;7.00;99.90;;;;;;5088021;28;20416;-72
2020/12/12 10:08:23;;;;;;;19.67;15.80;;;6.90;99.90;;;;;;5090788;28;20473;-72
2020/12/12 10:10:49;;;;;;;24.90;17.90;;;7.00;99.90;;;;;;5090476;28;20755;-71
2020/12/12 10:13:15;;;;;;;26.10;17.03;;;7.00;99.90;;;;;;5091298;28;20181;-72
2020/12/12 10:15:40;;;;;;;23.70;15.87;;;7.00;99.90;;;;;;5091315;28;20643;-72
2020/12/12 10:18:08;;;;;;;22.07;15.63;;;7.10;99.90;;;;;;5091260;28;20253;-72
2020/12/12 10:20:37;;;;;;;23.47;16.60;;;7.10;99.90;;;;;;5089359;28;20675;-72
2020/12/12 10:23:04;;;;;;;23.73;16.40;;;7.10;99.90;;;;;;5091210;28;20472;-71
2020/12/12 10:25:30;;;;;;;20.23;15.57;;;7.10;99.90;;;;;;5090652;28;20419;-71
2020/12/12 10:27:57;;;;;;;21.77;15.63;;;7.10;99.90;;;;;;5090648;28;20434;-71
2020/12/12 10:30:23;;;;;;;21.47;15.83;;;7.20;99.90;;;;;;5090333;28;20216;-71
2020/12/12 10:32:49;;;;;;;20.20;15.07;;;7.20;99.90;;;;;;5090459;28;20788;-71
2020/12/12 10:35:15;;;;;;;17.60;14.23;;;7.20;99.90;;;;;;5090945;28;20419;-72
2020/12/12 10:37:41;;;;;;;20.47;14.83;;;7.20;99.90;;;;;;5097940;28;20484;-72
2020/12/12 10:42:40;;;;;;;22.37;16.60;;;7.10;99.90;;;;;;5097811;28;20202;-71
2020/12/12 10:45:06;;;;;;;21.93;16.33;;;7.20;99.90;;;;;;5094246;28;20476;-72
2020/12/12 10:47:33;;;;;;;23.03;14.83;;;7.20;99.90;;;;;;5090417;28;20180;-71
2020/12/12 10:49:58;;;;;;;19.80;14.70;;;7.20;99.90;;;;;;5084367;28;20475;-72
2020/12/12 10:52:24;;;;;;;23.77;15.60;;;7.20;99.90;;;;;;5082416;28;20951;-71
2020/12/12 10:54:50;;;;;;;23.23;18.17;;;7.10;99.90;;;;;;5084462;28;20189;-72
2020/12/12 10:57:16;;;;;;;21.07;16.40;;;7.20;99.90;;;;;;5082067;28;20178;-72
2020/12/12 10:59:42;;;;;;;20.00;15.27;;;7.20;99.90;;;;;;5082476;28;20470;-71
2020/12/12 11:02:12;;;;;;;24.87;17.47;;;7.30;99.90;;;;;;5083743;28;20181;-71
2020/12/12 11:04:42;;;;;;;24.80;16.90;;;7.30;99.90;;;;;;5081738;28;20426;-72
2020/12/12 11:07:11;;;;;;;23.60;16.93;;;7.30;99.90;;;;;;5086606;28;20419;-72
2020/12/12 11:09:38;;;;;;;21.40;16.30;;;7.40;99.90;;;;;;5088502;28;20955;-72
2020/12/12 11:12:04;;;;;;;19.93;17.03;;;7.40;99.90;;;;;;5082996;28;21269;-71
2020/12/12 11:14:33;;;;;;;23.40;17.20;;;7.50;99.90;;;;;;5083552;28;20449;-72
2020/12/12 11:17:00;;;;;;;22.40;16.40;;;7.50;99.90;;;;;;5083398;28;20430;-72
2020/12/12 11:19:26;;;;;;;22.80;16.50;;;7.50;99.90;;;;;;5083185;28;20467;-72
2020/12/12 11:21:56;;;;;;;21.00;14.97;;;7.50;99.90;;;;;;5083666;28;20423;-73
2020/12/12 11:24:23;;;;;;;21.30;15.73;;;7.50;99.90;;;;;;5082417;28;20177;-73
2020/12/12 11:26:49;;;;;;;17.87;13.77;;;7.50;99.90;;;;;;5083845;28;20426;-72
2020/12/12 11:29:15;;;;;;;20.00;14.90;;;7.60;99.90;;;;;;5085203;28;20442;-72
2020/12/12 11:31:44;;;;;;;21.80;15.20;;;7.70;99.90;;;;;;5089299;28;20785;-73
2020/12/12 11:34:19;;;;;;;22.90;15.90;;;7.70;99.90;;;;;;5089837;28;20178;-72
2020/12/12 11:42:06;;;;;;;23.17;15.63;;;7.80;99.90;;;;;;5082900;28;20419;-72
2020/12/12 11:47:21;;;;;;;25.10;17.43;;;7.90;99.90;;;;;;5082891;28;20426;-73
2020/12/12 11:49:46;;;;;;;21.87;17.43;;;7.90;99.90;;;;;;5084096;28;20623;-72
2020/12/12 11:52:12;;;;;;;19.20;14.00;;;8.00;99.90;;;;;;5082824;28;20450;-72
2020/12/12 11:54:37;;;;;;;21.47;16.53;;;8.10;99.90;;;;;;5085937;28;20177;-72
2020/12/12 11:57:04;;;;;;;26.30;17.63;;;8.20;99.90;;;;;;5090844;28;20596;-71
2020/12/12 11:59:30;;;;;;;25.97;17.00;;;8.20;99.90;;;;;;5092658;28;20201;-72
2020/12/12 12:01:55;;;;;;;24.37;16.77;;;8.20;99.90;;;;;;5093747;28;20818;-72
2020/12/12 12:04:21;;;;;;;27.10;16.40;;;8.30;99.90;;;;;;5093670;28;20216;-72
2020/12/12 12:06:47;;;;;;;24.43;16.20;;;8.40;99.90;;;;;;5093790;28;20304;-71
2020/12/12 12:09:18;;;;;;;21.43;15.17;;;8.40;99.90;;;;;;5092632;28;20178;-71
2020/12/12 12:11:44;;;;;;;23.70;15.30;;;8.40;99.90;;;;;;5091899;28;20177;-72
2020/12/12 12:14:11;;;;;;;21.20;15.93;;;8.40;99.90;;;;;;5093065;28;20429;-72
2020/12/12 12:16:39;;;;;;;22.90;16.70;;;8.40;99.90;;;;;;5092174;28;20652;-71
2020/12/12 12:19:13;;;;;;;22.30;15.87;;;8.50;99.90;;;;;;5098126;28;20455;-72
2020/12/12 12:21:40;;;;;;;21.07;15.80;;;8.50;99.90;;;;;;5091094;28;20943;-71
2020/12/12 12:24:09;;;;;;;20.27;17.53;;;8.40;99.90;;;;;;5090874;28;20432;-73
2020/12/12 12:26:36;;;;;;;20.47;15.00;;;8.50;99.90;;;;;;5092598;28;22275;-72
2020/12/12 12:29:13;;;;;;;21.17;14.77;;;8.40;99.90;;;;;;5092645;28;20439;-73
2020/12/12 12:31:43;;;;;;;19.00;14.77;;;8.40;99.90;;;;;;5092833;28;20760;-73
2020/12/12 12:34:09;;;;;;;27.93;16.87;;;8.40;99.90;;;;;;5092299;28;20424;-72
2020/12/12 12:36:38;;;;;;;21.03;15.70;;;8.40;99.90;;;;;;5095575;28;20933;-72
2020/12/12 12:39:04;;;;;;;25.80;16.43;;;8.40;99.90;;;;;;5097549;28;20466;-73
2020/12/12 12:41:30;;;;;;;20.87;14.47;;;8.40;99.90;;;;;;5096808;28;20435;-73
2020/12/12 12:44:00;;;;;;;19.23;15.33;;;8.50;99.90;;;;;;5099301;28;20423;-73
2020/12/12 12:46:30;;;;;;;20.20;13.97;;;8.50;99.90;;;;;;5097512;28;20233;-73
2020/12/12 12:48:56;;;;;;;20.13;12.63;;;8.50;99.90;;;;;;5098061;28;20451;-74
2020/12/12 12:51:22;;;;;;;19.50;13.90;;;8.50;99.90;;;;;;5095485;28;20849;-74
2020/12/12 12:53:48;;;;;;;24.77;15.13;;;8.40;99.90;;;;;;5096847;28;20497;-74
2020/12/12 12:56:19;;;;;;;24.27;17.90;;;8.40;99.90;;;;;;5096907;28;20256;-74
2020/12/12 12:58:44;;;;;;;24.70;16.10;;;8.40;99.90;;;;;;5096376;28;20451;-74